KPIB/PIB METAR and TAF weather

Enter ICAO airport designator
Station Type Date Time Source
KPIB METAR 2020/11/25 18:08 UTC NOAA

KPIB 251808Z AUTO 19008G14KT 5SM VCTS RA BR FEW034 BKN045 OVC065 18/17 A3004 RMK AO2 LTG DSNT SW TSB02 PRESFR P0007


Station Type Date Time Source
KPIB Decoded METAR 2020/11/25 18:08 UTC NOAA

Hattiesburg/Laurel, Hattiesburg-Laurel Regional Airport, MS, United States (KPIB) 31-28N 089-20W
Nov 25, 2020 - 01:08 PM EST / 2020.11.25 1808 UTC
Wind: from the S (190 degrees) at 9 MPH (8 KT) gusting to 16 MPH (14 KT):0
Visibility: 5 mile(s):0
Sky conditions: overcast
Weather: thunder in the vicinity; rain; mist; Lightning observed
Precipitation last hour: 0.07 inches
Temperature: 64 F (18 C)
Dew Point: 62 F (17 C)
Relative Humidity: 93%
Pressure (altimeter): 30.04 in. Hg (1017 hPa)
Pressure tendency: falling rapidly
ob: KPIB 251808Z AUTO 19008G14KT 5SM VCTS RA BR FEW034 BKN045 OVC065 18/17 A3004 RMK AO2 LTG DSNT SW TSB02 PRESFR P0007
cycle: 18

Station Type Date Time Source
KPIB TAF 2020/11/25 18:39 UTC NOAA

TAF KPIB 251738Z 2518/2618 20010KT 4SM SHRA VCTS OVC035CB
TEMPO 2518/2520 28012G17KT 1SM +TSRA SCT007 OVC025CB
FM252200 19007KT P6SM SCT020 BKN050
FM260400 22004KT P6SM BKN015
FM260900 00000KT 5SM BR SCT005 BKN009 OVC035
FM261400 04003KT P6SM SCT015 OVC070

Example: see airport list